This is the latest recevied weather packets stored in our database for station/object F1ZRP-13. If no packets are shown the sender has not sent any weather packets the latest 10 day(s).
| Time | Temp. | Humidity | Pressure | Rain* | Wind** | Luminosity | Snow |
|---|---|---|---|---|---|---|---|
| 1777789662 | 16.11° C | 52% | 1015 hPa | - | - | - | - |
| 1777788756 | 15.56° C | 53% | 1015 hPa | - | - | - | - |
| 1777787818 | 15.56° C | 53% | 1014.9 hPa | - | - | - | - |
| 1777787096 | 15.56° C | 54% | 1014.9 hPa | - | - | - | - |
| 1777786151 | 15.56° C | 55% | 1014.8 hPa | - | - | - | - |
| 1777785241 | 15° C | 56% | 1014.8 hPa | - | - | - | - |
| 1777784402 | 15° C | 55% | 1014.9 hPa | - | - | - | - |
| 1777783297 | 14.44° C | 57% | 1015 hPa | - | - | - | - |
| 1777782270 | 13.89° C | 57% | 1015 hPa | - | - | - | - |
| 1777781405 | 13.89° C | 58% | 1015 hPa | - | - | - | - |
| 1777780564 | 13.89° C | 58% | 1015.1 hPa | - | - | - | - |
| 1777779601 | 14.44° C | 56% | 1015.2 hPa | - | - | - | - |
| 1777778433 | 14.44° C | 57% | 1015.1 hPa | - | - | - | - |
| 1777777477 | 14.44° C | 56% | 1015.2 hPa | - | - | - | - |
| 1777776556 | 14.44° C | 55% | 1015.2 hPa | - | - | - | - |
| 1777775549 | 15° C | 54% | 1015.3 hPa | - | - | - | - |
| 1777774644 | 15° C | 56% | 1015.3 hPa | - | - | - | - |
| 1777773739 | 15° C | 57% | 1015.4 hPa | - | - | - | - |
| 1777772811 | 14.44° C | 59% | 1015.5 hPa | - | - | - | - |
| 1777771721 | 14.44° C | 61% | 1015.6 hPa | - | - | - | - |
| 1777770751 | 14.44° C | 61% | 1015.7 hPa | - | - | - | - |
| 1777769996 | 14.44° C | 59% | 1015.8 hPa | - | - | - | - |
| 1777769059 | 15.56° C | 55% | 1015.6 hPa | - | - | - | - |
| 1777768165 | 15.56° C | 57% | 1015.8 hPa | - | - | - | - |
| 1777767132 | 15.56° C | 56% | 1015.9 hPa | - | - | - | - |
* Rain since midnight (hover to see other rain measurements)
** Current wind speed in m/s (hover to see current wind gust speed)